Time;durP1;ratioP1;P1;durP2;ratioP2;P2;SDS_P1;SDS_P2;PMS_P1;PMS_P2;Temp;Humidity;BMP_temperature;BMP_pressure;BME280_temperature;BME280_humidity;BME280_pressure;Samples;Min_cycle;Max_cycle;Signal;HPM_P1;HPM_P2
2022/01/04 00:01:26;;;;;;;3.47;2.30;;;5.20;85.00;;;3.89;80.52;95984.31;3922147;35;20315;-84
2022/01/04 00:03:52;;;;;;;5.60;2.90;;;5.10;84.90;;;3.88;80.53;95974.53;3925750;35;20002;-83
2022/01/04 00:06:18;;;;;;;4.70;2.58;;;5.10;85.00;;;3.88;80.58;95982.66;3922478;35;20085;-82
2022/01/04 00:08:45;;;;;;;3.53;2.65;;;5.10;85.00;;;3.89;80.59;95981.59;3902988;35;20424;-83
2022/01/04 00:11:17;;;;;;;4.47;2.47;;;5.10;85.00;;;3.89;80.38;95983.47;3924187;35;20045;-84
2022/01/04 00:13:44;;;;;;;4.13;2.50;;;5.20;84.90;;;3.90;80.30;95987.84;3947493;34;20484;-83
2022/01/04 00:16:11;;;;;;;3.75;2.45;;;5.20;84.90;;;3.86;80.50;95971.25;3984952;35;19990;-84
2022/01/04 00:18:38;;;;;;;3.50;2.05;;;5.10;84.90;;;3.88;80.56;95988.09;3921192;35;20352;-84
2022/01/04 00:21:05;;;;;;;5.15;2.58;;;5.10;84.90;;;3.88;80.72;95987.25;3940502;34;20300;-84
2022/01/04 00:23:32;;;;;;;5.22;2.90;;;5.10;84.90;;;3.88;80.67;95995.38;3898585;35;20286;-84
2022/01/04 00:25:58;;;;;;;3.50;2.17;;;5.20;84.90;;;3.88;80.42;95990.78;3917829;35;20325;-84
2022/01/04 00:28:25;;;;;;;5.00;2.67;;;5.10;84.90;;;3.88;80.36;95996.19;3899135;35;20018;-84
2022/01/04 00:30:51;;;;;;;3.53;2.28;;;5.10;85.00;;;3.88;80.31;95990.78;3899961;35;20022;-84
2022/01/04 00:33:18;;;;;;;4.97;2.63;;;5.20;84.90;;;3.88;80.52;95996.19;3941305;34;20307;-84
2022/01/04 00:35:44;;;;;;;4.75;3.13;;;5.10;84.90;;;3.89;80.37;95991.59;3900016;35;20210;-83
2022/01/04 00:38:11;;;;;;;3.55;2.35;;;5.20;84.90;;;3.88;80.21;95984.53;3920594;35;20304;-84
2022/01/04 00:40:37;;;;;;;5.25;2.55;;;5.10;84.90;;;3.87;80.34;95989.13;3919897;35;20270;-83
2022/01/04 00:43:04;;;;;;;4.10;2.50;;;5.10;85.00;;;3.86;80.55;95987.47;3940363;35;20018;-83
2022/01/04 00:45:32;;;;;;;4.22;2.45;;;5.20;84.90;;;3.87;80.55;95994.56;3899325;35;20295;-84
2022/01/04 00:50:28;;;;;;;3.97;2.42;;;5.10;84.90;;;3.88;80.59;95985.38;3920562;35;20308;-83
2022/01/04 00:52:54;;;;;;;3.72;2.28;;;5.10;85.00;;;3.86;80.55;95992.91;3919449;35;20307;-84
2022/01/04 00:55:21;;;;;;;5.45;3.35;;;5.10;84.90;;;3.88;80.65;95989.94;3919054;35;20402;-84
2022/01/04 00:57:47;;;;;;;3.70;2.28;;;5.10;85.00;;;3.88;80.58;95985.38;3941079;35;20013;-84
2022/01/04 01:00:16;;;;;;;4.90;2.58;;;5.10;85.00;;;3.89;80.61;95991.59;3920816;35;20328;-83
2022/01/04 01:02:42;;;;;;;4.32;2.70;;;5.20;85.90;;;3.88;80.46;95985.38;3920626;35;20300;-84
2022/01/04 01:05:09;;;;;;;4.57;2.88;;;5.10;84.90;;;3.88;80.49;95988.09;3920771;35;20694;-84
2022/01/04 01:07:36;;;;;;;5.18;2.92;;;5.10;84.90;;;3.86;80.56;95976.66;3941357;35;20293;-84
2022/01/04 01:12:36;;;;;;;3.83;2.45;;;5.10;84.90;;;3.88;80.61;95982.66;3921826;35;20010;-84
2022/01/04 01:15:04;;;;;;;3.47;2.33;;;5.10;85.00;;;3.87;80.22;95983.72;3921747;35;20030;-83
2022/01/04 01:17:31;;;;;;;3.33;2.30;;;5.10;84.90;;;3.86;80.47;95976.66;3922636;35;20678;-84
2022/01/04 01:19:58;;;;;;;3.97;2.58;;;5.10;85.00;;;3.88;80.98;95979.97;3923924;35;20014;-84
2022/01/04 01:22:25;;;;;;;3.60;2.50;;;5.10;84.90;;;3.86;80.52;95975.84;3923075;35;20635;-84
2022/01/04 01:24:51;;;;;;;3.13;2.28;;;5.10;85.00;;;3.88;80.73;95971.00;3902201;35;19998;-84
2022/01/04 01:27:17;;;;;;;4.30;2.63;;;5.10;85.10;;;3.85;80.77;95964.16;3924302;35;20002;-84
2022/01/04 01:29:43;;;;;;;4.28;2.10;;;5.10;85.00;;;3.85;80.64;95958.75;3926888;34;20345;-84
2022/01/04 01:32:10;;;;;;;4.68;2.38;;;5.10;85.10;;;3.86;80.63;95963.13;4014756;34;20363;-84
2022/01/04 01:34:36;;;;;;;4.07;2.10;;;5.10;85.00;;;3.88;80.47;95974.53;3971202;34;20006;-84
2022/01/04 01:37:03;;;;;;;4.07;2.33;;;5.10;84.90;;;3.86;80.61;95967.72;4015113;34;20581;-84
2022/01/04 01:39:29;;;;;;;3.83;2.40;;;5.10;85.00;;;3.88;80.35;95979.13;3955124;34;20018;-84
2022/01/04 01:41:56;;;;;;;3.75;2.25;;;5.10;84.90;;;3.86;80.58;95971.25;3997338;34;20277;-84
2022/01/04 01:44:22;;;;;;;4.78;2.42;;;5.10;84.90;;;3.86;80.50;95965.00;3962736;34;20006;-84
2022/01/04 01:46:49;;;;;;;4.78;2.70;;;5.10;85.00;;;3.86;80.48;95971.25;4001433;34;20685;-84
2022/01/04 01:49:15;;;;;;;4.15;2.58;;;5.10;85.10;;;3.86;80.58;95960.41;3947173;34;20002;-84
2022/01/04 01:51:41;;;;;;;5.28;2.60;;;5.10;84.90;;;3.86;80.56;95965.00;3979830;34;20009;-83
2022/01/04 01:54:08;;;;;;;5.03;2.80;;;5.10;85.00;;;3.86;80.51;95968.53;3938798;34;20398;-84
2022/01/04 01:56:34;;;;;;;4.18;2.60;;;5.10;85.00;;;3.86;80.67;95973.94;3947956;34;20344;-83
2022/01/04 01:59:00;;;;;;;3.53;2.22;;;5.10;85.10;;;3.88;80.63;95973.69;3967637;34;20026;-84
2022/01/04 02:01:27;;;;;;;4.55;2.72;;;5.10;85.00;;;3.88;80.84;95971.84;3988778;34;20329;-84
2022/01/04 02:03:53;;;;;;;3.67;2.25;;;5.10;85.10;;;3.86;80.64;95965.81;3970884;34;20303;-84
2022/01/04 02:06:21;;;;;;;4.63;2.70;;;5.10;85.00;;;3.88;80.53;95966.41;3988748;34;20013;-83
2022/01/04 02:08:47;;;;;;;3.63;2.17;;;5.10;85.00;;;3.87;80.67;95967.47;4010465;34;20567;-83
2022/01/04 02:11:13;;;;;;;4.03;2.28;;;5.10;85.10;;;3.87;80.73;95967.47;3967305;34;20017;-83
2022/01/04 02:13:39;;;;;;;4.75;2.63;;;5.10;85.10;;;3.88;80.87;95960.16;3967543;34;20013;-83
2022/01/04 02:16:09;;;;;;;4.38;2.50;;;5.10;85.10;;;3.86;80.67;95957.69;3966940;34;20315;-84
2022/01/04 02:18:35;;;;;;;6.00;2.85;;;5.20;85.10;;;3.87;80.71;95962.06;3966810;34;20369;-83
2022/01/04 02:21:02;;;;;;;4.75;2.55;;;5.10;85.10;;;3.86;80.75;95965.81;3987828;34;20296;-84
2022/01/04 02:23:28;;;;;;;4.38;2.15;;;5.10;85.10;;;3.87;80.70;95967.47;3964704;34;20072;-84
2022/01/04 02:25:56;;;;;;;3.67;2.30;;;5.10;85.20;;;3.86;80.58;95963.13;4006248;34;20006;-84
2022/01/04 02:28:22;;;;;;;3.63;2.38;;;5.10;85.20;;;3.88;80.72;95958.28;3943378;34;20388;-84
2022/01/04 02:30:49;;;;;;;5.68;2.70;;;5.10;85.10;;;3.88;80.48;95962.88;3964192;34;20310;-84
2022/01/04 02:33:15;;;;;;;3.70;2.30;;;5.10;85.10;;;3.87;80.41;95964.75;3943470;34;20013;-84
2022/01/04 02:35:42;;;;;;;4.07;2.33;;;5.10;85.10;;;3.86;80.80;95960.41;3922478;34;20318;-84
2022/01/04 02:38:09;;;;;;;4.35;2.40;;;5.10;85.10;;;3.87;80.48;95962.06;3984909;34;19994;-84
2022/01/04 02:40:36;;;;;;;4.15;2.55;;;5.10;85.10;;;3.88;80.58;95969.13;3982965;34;20720;-83
2022/01/04 02:43:02;;;;;;;3.47;1.95;;;5.10;85.10;;;3.86;80.35;95971.25;3965915;34;20018;-84
2022/01/04 02:45:29;;;;;;;3.45;2.38;;;5.10;85.10;;;3.87;80.62;95967.47;3960294;34;20006;-84
2022/01/04 02:47:55;;;;;;;4.53;2.42;;;5.20;85.00;;;3.86;80.61;95965.00;3940133;34;20068;-84
2022/01/04 02:50:21;;;;;;;4.63;2.60;;;5.10;85.00;;;3.87;80.64;95975.59;3986775;34;20013;-84
2022/01/04 02:52:48;;;;;;;4.20;2.45;;;5.10;85.00;;;3.87;80.74;95972.88;3967273;34;20310;-84
2022/01/04 02:55:15;;;;;;;2.97;2.17;;;5.10;85.00;;;3.86;80.56;95976.66;3964831;34;20085;-83
2022/01/04 02:57:42;;;;;;;3.30;1.95;;;5.10;85.00;;;3.87;80.78;95972.88;3924508;34;20633;-84
2022/01/04 03:00:13;;;;;;;3.75;2.92;;;5.10;85.00;;;3.88;80.83;95977.25;3948170;34;20006;-84
2022/01/04 03:02:40;;;;;;;3.67;2.15;;;5.10;85.10;;;3.85;80.61;95969.59;3948806;34;20018;-84
2022/01/04 03:05:07;;;;;;;3.63;2.13;;;5.10;85.10;;;3.87;80.51;95969.38;3927729;34;20014;-84
2022/01/04 03:07:34;;;;;;;3.97;2.20;;;5.10;85.00;;;3.86;80.78;95957.69;3926963;34;20009;-84
2022/01/04 03:10:01;;;;;;;3.53;1.95;;;5.10;85.00;;;3.85;80.80;95961.47;3968832;34;20316;-84
2022/01/04 03:12:27;;;;;;;3.78;2.35;;;5.10;85.00;;;3.86;80.23;95968.53;3968772;34;20362;-84
2022/01/04 03:14:53;;;;;;;3.72;2.20;;;5.10;84.90;;;3.86;80.34;95971.25;3968623;34;20002;-84
2022/01/04 03:17:19;;;;;;;3.28;2.08;;;5.10;84.90;;;3.85;80.38;95972.28;3968819;34;20344;-84
2022/01/04 03:19:46;;;;;;;4.60;2.88;;;5.10;84.90;;;3.86;80.51;95973.94;3926451;34;20585;-84
2022/01/04 03:22:12;;;;;;;3.97;2.25;;;5.10;85.00;;;3.86;80.32;95967.72;3968510;34;20212;-84
2022/01/04 03:24:38;;;;;;;4.53;2.20;;;5.10;85.10;;;3.86;80.50;95970.44;4011204;34;20536;-84
2022/01/04 03:27:05;;;;;;;3.30;2.08;;;5.10;85.10;;;3.86;80.63;95965.81;3989666;34;20314;-84
2022/01/04 03:29:33;;;;;;;3.15;2.05;;;5.10;85.10;;;3.86;80.55;95959.59;3907255;34;20014;-84
2022/01/04 03:31:59;;;;;;;3.15;1.83;;;5.10;85.10;;;3.86;80.82;95955.00;3947300;34;20384;-84
2022/01/04 03:34:26;;;;;;;3.38;2.20;;;5.10;85.10;;;3.84;81.12;95946.28;3947687;34;20403;-84
2022/01/04 03:36:52;;;;;;;5.72;2.33;;;5.10;85.10;;;3.84;80.57;95957.09;3968503;34;20321;-84
2022/01/04 03:39:18;;;;;;;2.85;2.05;;;5.10;85.20;;;3.84;80.63;95951.69;3947332;34;20256;-84
2022/01/04 03:41:46;;;;;;;3.75;2.17;;;5.10;85.20;;;3.85;80.95;95961.47;3988672;34;20717;-84
2022/01/04 03:44:18;;;;;;;3.92;2.20;;;5.10;85.20;;;3.84;80.85;95940.84;3988884;34;20343;-84
2022/01/04 03:46:52;;;;;;;3.35;2.08;;;5.10;85.10;;;3.83;80.55;95947.31;3990698;34;20018;-84
2022/01/04 03:49:19;;;;;;;3.72;1.90;;;5.10;85.20;;;3.83;80.43;95948.16;3923932;35;20311;-84
2022/01/04 03:51:45;;;;;;;4.80;2.30;;;5.10;85.10;;;3.82;80.84;95946.50;3963307;35;20239;-84
2022/01/04 03:54:12;;;;;;;3.72;2.47;;;5.10;85.10;;;3.83;80.42;95941.91;3962978;35;20296;-84
2022/01/04 03:56:38;;;;;;;4.68;2.05;;;5.10;85.20;;;3.83;80.73;95947.31;3920337;35;20014;-84
2022/01/04 03:59:05;;;;;;;2.67;1.60;;;5.10;85.20;;;3.81;80.74;95941.31;3963420;35;20291;-84
2022/01/04 04:01:31;;;;;;;3.22;2.05;;;5.10;85.20;;;3.82;80.75;95937.56;3941042;35;20016;-84
2022/01/04 04:03:57;;;;;;;3.88;1.95;;;5.10;85.10;;;3.81;80.66;95931.31;3984169;35;20021;-84
2022/01/04 04:06:24;;;;;;;4.03;2.10;;;5.10;85.10;;;3.82;80.73;95937.56;3982858;35;20728;-84
2022/01/04 04:08:51;;;;;;;3.85;2.30;;;5.10;85.00;;;3.82;80.86;95937.56;3941313;35;20024;-84
2022/01/04 04:11:17;;;;;;;3.42;1.70;;;5.10;85.10;;;3.82;80.50;95934.84;3962497;34;20030;-84
2022/01/04 04:13:44;;;;;;;3.25;2.05;;;5.10;85.10;;;3.82;80.72;95941.09;3941065;35;20140;-84
2022/01/04 04:16:10;;;;;;;3.85;2.05;;;5.10;85.20;;;3.82;80.62;95929.44;3899621;35;20321;-83
2022/01/04 04:18:37;;;;;;;3.58;1.90;;;5.10;85.30;;;3.82;80.99;95924.00;3961499;35;20332;-83
2022/01/04 04:21:03;;;;;;;4.40;1.63;;;5.10;85.10;;;3.82;80.73;95915.88;3920419;35;20280;-83
2022/01/04 04:23:29;;;;;;;3.13;1.73;;;5.10;85.20;;;3.82;80.87;95914.03;3966320;35;20010;-84
2022/01/04 04:25:55;;;;;;;3.60;1.90;;;5.10;85.10;;;3.82;80.62;95915.88;3899795;35;20361;-83
2022/01/04 04:28:22;;;;;;;3.65;2.03;;;5.10;85.20;;;3.81;81.08;95914.25;3962765;35;20337;-83
2022/01/04 04:30:48;;;;;;;3.28;2.13;;;5.10;85.10;;;3.80;80.63;95918.84;3942980;35;20009;-84
2022/01/04 04:33:14;;;;;;;3.40;1.95;;;5.10;85.10;;;3.81;80.86;95922.34;3921483;35;20024;-84
2022/01/04 04:35:41;;;;;;;3.47;2.20;;;5.10;85.30;;;3.80;80.91;95921.56;3964479;35;20285;-84
2022/01/04 04:38:07;;;;;;;3.58;1.63;;;5.10;85.40;;;3.82;81.18;95926.72;3964509;35;20343;-83
2022/01/04 04:40:34;;;;;;;4.70;2.40;;;5.10;85.40;;;3.81;80.46;95922.34;3964804;35;20324;-84
2022/01/04 04:43:01;;;;;;;4.65;2.40;;;5.10;85.20;;;3.79;81.00;95922.59;3946452;35;20340;-84
2022/01/04 04:45:27;;;;;;;3.90;2.03;;;5.10;85.20;;;3.80;80.92;95934.28;3941727;35;20101;-83
2022/01/04 04:47:53;;;;;;;4.03;2.25;;;5.10;85.30;;;3.81;80.91;95930.47;3962517;35;20021;-83
2022/01/04 04:50:19;;;;;;;4.25;2.72;;;5.10;86.20;;;3.81;80.52;95935.91;3942026;35;20336;-84
2022/01/04 04:52:46;;;;;;;4.93;2.85;;;5.10;85.20;;;3.80;81.08;95923.44;3965905;35;20279;-84
2022/01/04 04:55:12;;;;;;;4.13;2.80;;;5.10;85.20;;;3.79;80.55;95928.03;3944885;35;20326;-84
2022/01/04 04:57:39;;;;;;;3.83;2.35;;;5.10;85.30;;;3.80;80.91;95928.88;3964071;34;20692;-84
2022/01/04 05:00:08;;;;;;;5.10;2.92;;;5.10;85.20;;;3.80;80.65;95920.75;3964379;34;20346;-84
2022/01/04 05:02:34;;;;;;;4.47;2.80;;;5.10;85.20;;;3.80;80.67;95929.69;3922320;35;20069;-84
2022/01/04 05:05:01;;;;;;;5.53;3.33;;;5.10;85.20;;;3.79;81.07;95928.03;3956950;34;20625;-84
2022/01/04 05:07:27;;;;;;;6.97;3.75;;;5.10;85.20;;;3.79;80.71;95921.78;3942167;35;20314;-83
2022/01/04 05:09:53;;;;;;;4.32;2.92;;;5.10;85.20;;;3.78;80.65;95920.97;3942184;34;20266;-84
2022/01/04 05:12:20;;;;;;;7.05;2.85;;;5.10;85.10;;;3.78;81.05;95920.97;3921521;35;20631;-84
2022/01/04 05:14:46;;;;;;;4.93;2.85;;;5.00;84.90;;;3.77;80.86;95913.88;3921580;35;19998;-84
2022/01/04 05:17:13;;;;;;;5.15;3.28;;;5.10;85.10;;;3.80;80.65;95907.19;3920943;35;20323;-84
2022/01/04 05:19:40;;;;;;;5.63;3.45;;;5.00;85.00;;;3.77;80.74;95905.75;3960728;35;20323;-84
2022/01/04 05:22:07;;;;;;;4.72;3.22;;;5.00;84.90;;;3.78;80.79;95912.84;3898831;35;20014;-84
2022/01/04 05:24:34;;;;;;;4.97;3.10;;;5.00;85.10;;;3.76;80.76;95911.44;3898615;35;20014;-84
2022/01/04 05:27:00;;;;;;;5.53;3.25;;;5.00;85.10;;;3.78;80.46;95917.44;3916144;35;20373;-84
2022/01/04 05:29:27;;;;;;;5.43;3.70;;;5.00;85.10;;;3.76;80.90;95909.53;3912723;35;20435;-84
2022/01/04 05:31:53;;;;;;;7.90;4.03;;;5.00;85.20;;;3.76;80.79;95906.00;3912220;35;20065;-84
2022/01/04 05:34:20;;;;;;;4.70;3.30;;;5.00;85.10;;;3.77;80.64;95918.50;3890653;35;20364;-84
2022/01/04 05:36:46;;;;;;;6.25;4.13;;;5.00;85.10;;;3.76;80.91;95916.84;3928281;35;20302;-85
2022/01/04 05:39:12;;;;;;;5.85;3.78;;;5.00;85.30;;;3.75;81.04;95916.00;3907812;35;20007;-85
2022/01/04 05:41:38;;;;;;;6.05;4.18;;;5.00;85.20;;;3.76;80.59;95916.84;3887315;35;20319;-85
2022/01/04 05:44:05;;;;;;;6.25;3.90;;;5.00;85.10;;;3.76;80.67;95916.84;3887646;35;20320;-85
2022/01/04 05:46:32;;;;;;;7.22;4.43;;;5.00;85.30;;;3.75;80.85;95917.91;3910719;35;20625;-84
2022/01/04 05:48:58;;;;;;;7.07;4.28;;;5.00;85.30;;;3.75;80.83;95910.59;3952253;35;20301;-85
2022/01/04 05:51:24;;;;;;;6.50;3.90;;;5.00;85.20;;;3.75;81.15;95905.16;3931044;34;20637;-84
2022/01/04 05:53:51;;;;;;;7.20;4.78;;;5.00;85.30;;;3.76;80.90;95911.44;3909790;35;20376;-84
2022/01/04 05:56:17;;;;;;;7.53;4.60;;;5.00;85.10;;;3.75;81.02;95916.00;3909799;35;20010;-83
2022/01/04 05:58:43;;;;;;;7.75;4.68;;;5.00;85.20;;;3.75;80.56;95915.19;3909833;35;20315;-84
2022/01/04 06:01:10;;;;;;;7.80;5.25;;;5.00;85.20;;;3.77;80.71;95913.06;3908697;35;20287;-84
2022/01/04 06:03:36;;;;;;;6.25;4.50;;;5.00;86.00;;;3.74;80.77;95906.25;3911861;35;20003;-84
2022/01/04 06:06:03;;;;;;;5.88;4.22;;;5.00;85.20;;;3.73;80.71;95904.59;3930673;35;20424;-84
2022/01/04 06:08:34;;;;;;;6.72;4.63;;;5.00;85.20;;;3.75;80.71;95913.28;3910579;35;20294;-84
2022/01/04 06:11:01;;;;;;;7.63;4.43;;;5.00;85.20;;;3.76;80.62;95916.84;3911569;35;20305;-84
2022/01/04 06:16:13;;;;;;;7.40;4.90;;;5.00;85.10;;;3.75;80.54;95904.38;3918712;35;20282;-84
2022/01/04 06:18:41;;;;;;;8.10;5.15;;;5.00;85.10;;;3.74;80.70;95910.84;3955388;35;20333;-84
2022/01/04 06:21:09;;;;;;;8.80;4.90;;;5.00;85.10;;;3.76;80.67;95911.44;3953145;35;20020;-84
2022/01/04 06:23:35;;;;;;;6.90;4.68;;;5.00;85.20;;;3.75;80.82;95912.47;3895176;35;20528;-84
2022/01/04 06:26:01;;;;;;;8.75;5.20;;;5.00;85.10;;;3.74;81.37;95908.13;3913001;35;20002;-84
2022/01/04 06:28:27;;;;;;;7.47;4.72;;;5.00;85.30;;;3.74;80.68;95903.56;3933644;35;20388;-84
2022/01/04 06:30:54;;;;;;;7.13;4.60;;;5.00;85.10;;;3.74;81.06;95900.00;3898833;35;20294;-84
2022/01/04 06:33:21;;;;;;;8.93;5.13;;;5.00;85.20;;;3.73;80.72;95896.47;3923906;35;20030;-84
2022/01/04 06:35:50;;;;;;;8.38;6.00;;;5.00;85.10;;;3.75;80.94;95904.38;3914837;35;20006;-84
2022/01/04 06:38:17;;;;;;;9.18;4.80;;;5.00;85.10;;;3.76;80.91;95901.41;3917193;35;20299;-84
2022/01/04 06:40:43;;;;;;;8.95;5.70;;;5.00;85.00;;;3.78;80.37;95909.31;3918895;35;20016;-84
2022/01/04 06:43:10;;;;;;;10.50;6.85;;;5.00;85.00;;;3.77;80.14;95910.38;3897818;35;20331;-84
2022/01/04 06:45:36;;;;;;;9.20;6.65;;;5.00;84.90;;;3.77;80.24;95913.88;3905705;34;20353;-84
2022/01/04 06:48:04;;;;;;;11.85;7.38;;;5.00;84.70;;;3.77;80.51;95910.38;3902212;34;20699;-84
2022/01/04 06:50:31;;;;;;;8.93;6.15;;;5.00;84.80;;;3.79;80.60;95909.06;3922536;34;20058;-84
2022/01/04 06:52:58;;;;;;;11.77;8.32;;;5.10;84.70;;;3.78;80.44;95910.13;3963336;34;20327;-84
2022/01/04 06:55:24;;;;;;;14.20;8.77;;;5.10;84.60;;;3.80;80.30;95899.09;3942323;34;20341;-86
2022/01/04 06:57:50;;;;;;;16.85;9.63;;;5.10;84.60;;;3.79;80.16;95905.56;3942687;34;20053;-84
2022/01/04 07:00:17;;;;;;;16.10;10.68;;;5.00;84.30;;;3.81;80.14;95898.00;3963960;34;20325;-85
2022/01/04 07:02:44;;;;;;;15.27;11.20;;;5.00;84.30;;;3.80;80.00;95904.50;3963587;34;20053;-85
2022/01/04 07:05:10;;;;;;;17.70;10.18;;;5.10;84.30;;;3.81;79.87;95893.41;3922052;34;20038;-84
2022/01/04 07:07:36;;;;;;;17.15;12.05;;;5.10;84.30;;;3.84;80.19;95889.41;3964339;34;20357;-85
2022/01/04 07:10:03;;;;;;;16.90;10.40;;;5.10;84.40;;;3.88;79.82;95890.59;3964467;34;20291;-86
2022/01/04 07:12:30;;;;;;;12.50;8.77;;;5.10;84.30;;;3.89;79.65;95892.25;3943579;34;20289;-85
2022/01/04 07:14:56;;;;;;;13.75;9.43;;;5.20;84.30;;;3.91;80.09;95898.25;3942655;34;20373;-84
2022/01/04 07:17:22;;;;;;;14.05;10.02;;;5.20;84.50;;;3.93;80.04;95896.13;3942532;35;20014;-85
2022/01/04 07:19:49;;;;;;;14.82;9.88;;;5.20;84.50;;;3.95;80.09;95887.75;3918473;35;20021;-85
2022/01/04 07:22:15;;;;;;;18.13;10.65;;;5.20;84.30;;;3.98;80.19;95892.72;3940822;34;20081;-86
2022/01/04 07:24:41;;;;;;;16.00;11.02;;;5.30;84.30;;;4.01;79.91;95889.50;3920526;34;20363;-86
2022/01/04 07:27:08;;;;;;;17.20;11.23;;;5.30;84.30;;;4.03;79.56;95894.72;3920505;35;20307;-85
2022/01/04 07:29:34;;;;;;;16.20;11.07;;;5.30;84.10;;;4.06;79.31;95878.00;3920334;35;20006;-85
2022/01/04 07:32:00;;;;;;;17.77;11.88;;;5.30;84.00;;;4.09;79.73;95877.50;3941259;34;20013;-85
2022/01/04 07:34:27;;;;;;;18.15;11.80;;;5.40;84.10;;;4.11;79.62;95875.38;3961808;35;20300;-85
2022/01/04 07:36:53;;;;;;;18.15;11.77;;;5.40;84.10;;;4.13;79.70;95863.22;3961845;34;20029;-85
2022/01/04 07:39:20;;;;;;;18.95;11.45;;;5.40;84.10;;;4.15;79.41;95871.13;3983746;35;20063;-85
2022/01/04 07:41:47;;;;;;;19.35;12.63;;;5.40;83.60;;;4.20;79.49;95865.81;3973575;34;20579;-85
2022/01/04 07:44:13;;;;;;;18.58;13.13;;;5.50;84.00;;;4.23;79.35;95872.66;3903464;34;20629;-85
2022/01/04 07:46:39;;;;;;;20.95;13.23;;;5.50;83.80;;;4.26;79.27;95864.88;3985915;34;20197;-85
2022/01/04 07:49:05;;;;;;;20.73;13.43;;;5.50;83.70;;;4.30;79.07;95866.06;3944579;34;20017;-85
2022/01/04 07:51:32;;;;;;;21.75;13.75;;;5.50;83.60;;;4.34;79.35;95869.09;3986029;34;20350;-86
2022/01/04 07:53:58;;;;;;;20.58;13.50;;;5.50;83.60;;;4.37;79.28;95870.50;3923005;34;20058;-86
2022/01/04 07:56:24;;;;;;;21.23;13.63;;;5.60;83.50;;;4.42;79.27;95859.78;3921712;34;20089;-85
2022/01/04 07:58:52;;;;;;;20.45;12.88;;;5.60;83.30;;;4.44;78.63;95852.25;3922883;34;20695;-84
2022/01/04 08:01:18;;;;;;;19.13;12.77;;;5.60;83.20;;;4.48;78.53;95849.88;3944355;34;20608;-84
2022/01/04 08:03:44;;;;;;;22.80;14.43;;;5.70;83.30;;;4.51;78.80;95847.50;3966659;34;20006;-85
2022/01/04 08:06:10;;;;;;;19.33;12.98;;;5.70;83.10;;;4.56;78.52;95841.34;3967041;34;20002;-86
2022/01/04 08:08:37;;;;;;;18.52;13.18;;;5.80;83.00;;;4.59;78.38;95832.72;3926498;34;20297;-85
2022/01/04 08:11:03;;;;;;;23.10;14.15;;;5.80;82.90;;;4.62;78.78;95826.84;3988827;34;19986;-85
2022/01/04 08:13:30;;;;;;;22.98;14.63;;;5.80;82.80;;;4.67;78.20;95824.19;3966937;34;20006;-85
2022/01/04 08:15:57;;;;;;;21.05;13.88;;;5.80;82.70;;;4.70;77.88;95828.34;3948247;34;20571;-85
2022/01/04 08:18:23;;;;;;;20.05;13.73;;;5.90;82.70;;;4.73;78.05;95819.69;3907607;34;20021;-85
2022/01/04 08:20:53;;;;;;;22.80;13.45;;;5.90;82.60;;;4.76;77.99;95819.22;3906648;34;20009;-85
2022/01/04 08:23:20;;;;;;;20.52;14.10;;;6.00;82.40;;;4.79;78.09;95824.16;3971741;34;19997;-85
2022/01/04 08:25:46;;;;;;;24.65;14.65;;;6.00;82.30;;;4.84;77.67;95823.44;3989809;34;20065;-86
2022/01/04 08:28:13;;;;;;;26.30;16.23;;;6.00;82.10;;;4.86;77.37;95822.09;3950007;34;20298;-85
2022/01/04 08:30:41;;;;;;;22.08;14.50;;;6.00;81.90;;;4.87;77.69;95812.09;4011446;34;20172;-85
2022/01/04 08:33:07;;;;;;;25.00;15.88;;;6.10;82.00;;;4.90;77.49;95812.44;3967592;34;20108;-85
2022/01/04 08:35:33;;;;;;;23.25;15.70;;;6.10;81.90;;;4.93;77.68;95815.72;3936970;34;20649;-85
2022/01/04 08:38:00;;;;;;;24.10;15.35;;;6.10;81.80;;;4.93;77.36;95815.72;3938355;34;20329;-85
2022/01/04 08:40:26;;;;;;;30.77;17.27;;;6.10;81.70;;;4.94;77.30;95809.22;3958304;34;20195;-85
2022/01/04 08:42:52;;;;;;;25.73;15.05;;;6.10;81.60;;;4.96;77.55;95812.53;3936995;34;20014;-85
2022/01/04 08:45:21;;;;;;;25.95;15.35;;;6.10;81.60;;;4.96;77.08;95807.09;3957677;35;20348;-85
2022/01/04 08:47:49;;;;;;;25.15;14.82;;;6.20;81.60;;;4.97;77.47;95803.31;3895271;35;20290;-84
2022/01/04 08:50:16;;;;;;;25.83;15.02;;;6.20;81.50;;;4.97;77.01;95801.41;3935582;35;20342;-85
2022/01/04 08:52:42;;;;;;;33.70;17.52;;;6.20;81.50;;;4.96;77.24;95793.53;3914047;35;20308;-85
2022/01/04 08:55:09;;;;;;;30.73;17.10;;;6.20;81.50;;;4.98;77.18;95796.81;3893575;35;20029;-84
2022/01/04 08:57:36;;;;;;;28.98;17.67;;;6.20;81.40;;;4.99;77.36;95788.44;3933786;34;20009;-85
2022/01/04 09:00:07;;;;;;;28.85;16.13;;;6.20;81.50;;;5.00;77.50;95791.97;3933696;35;19990;-85
2022/01/04 09:02:34;;;;;;;28.90;17.00;;;6.20;81.40;;;4.99;77.38;95788.44;3913241;35;20388;-86
2022/01/04 09:05:01;;;;;;;28.65;17.02;;;6.20;81.40;;;4.99;77.21;95776.75;3933012;35;20013;-85
2022/01/04 09:07:27;;;;;;;29.90;16.08;;;6.20;81.40;;;4.98;77.08;95775.94;3954269;35;20340;-85
2022/01/04 09:09:53;;;;;;;28.52;16.02;;;6.20;81.40;;;4.98;77.46;95775.09;3975925;35;20025;-85
2022/01/04 09:12:23;;;;;;;28.38;16.30;;;6.20;81.40;;;4.95;77.43;95773.72;3956540;35;20311;-85
2022/01/04 09:14:59;;;;;;;29.33;16.40;;;6.20;81.30;;;4.95;77.25;95762.06;3895048;35;20335;-85
2022/01/04 09:20:13;;;;;;;23.38;15.60;;;6.20;81.40;;;4.95;77.36;95775.63;3960850;35;20010;-85
2022/01/04 09:22:40;;;;;;;27.65;15.95;;;6.20;81.60;;;4.94;76.99;95768.53;3956890;35;20700;-85
2022/01/04 09:25:07;;;;;;;24.35;14.63;;;6.20;81.40;;;4.94;77.35;95773.97;3956991;35;20064;-84
2022/01/04 09:27:33;;;;;;;25.17;15.30;;;6.20;81.40;;;4.91;77.32;95765.25;3940881;35;20362;-85
2022/01/04 09:30:03;;;;;;;22.45;13.80;;;6.20;81.40;;;4.93;77.13;95758.75;3921150;35;20006;-85
2022/01/04 09:32:32;;;;;;;23.05;13.98;;;6.20;81.40;;;4.93;77.26;95756.06;3899197;35;20616;-85
2022/01/04 09:34:59;;;;;;;21.00;13.73;;;6.20;81.40;;;4.93;77.43;95747.91;3961657;34;20062;-84
2022/01/04 09:37:26;;;;;;;23.52;13.57;;;6.20;81.40;;;4.90;77.26;95744.63;3902718;34;20061;-85
2022/01/04 09:39:52;;;;;;;23.83;14.35;;;6.20;81.40;;;4.90;77.59;95741.91;3902944;34;20675;-85
2022/01/04 09:42:22;;;;;;;21.35;12.88;;;6.20;81.50;;;4.91;77.61;95748.97;3965291;34;20042;-85
2022/01/04 09:44:49;;;;;;;23.80;12.70;;;6.20;81.50;;;4.92;77.12;95744.34;3964574;34;20528;-84
2022/01/04 09:47:15;;;;;;;21.45;13.02;;;6.20;81.40;;;4.90;77.55;95736.47;3941107;34;20430;-85
2022/01/04 09:49:41;;;;;;;22.08;13.35;;;6.20;81.50;;;4.90;77.57;95739.19;3959588;34;20012;-86
2022/01/04 09:52:09;;;;;;;20.02;12.93;;;6.20;81.50;;;4.89;77.47;95726.69;3938794;34;20221;-85
2022/01/04 09:54:35;;;;;;;20.83;12.35;;;6.20;81.40;;;4.90;77.27;95724.81;3985771;34;20392;-85
2022/01/04 09:57:02;;;;;;;22.00;12.48;;;6.20;81.40;;;4.88;77.28;95722.34;3923469;34;20321;-85
2022/01/04 09:59:28;;;;;;;20.52;11.48;;;6.20;81.40;;;4.88;77.47;95733.19;3986275;34;20005;-85
2022/01/04 10:02:02;;;;;;;22.20;12.05;;;6.20;81.40;;;4.87;77.67;95720.69;3964737;34;20296;-84
2022/01/04 10:04:28;;;;;;;20.30;11.93;;;6.20;81.50;;;4.89;77.53;95729.41;3987720;34;20327;-84
2022/01/04 10:07:04;;;;;;;21.60;11.27;;;6.20;81.50;;;4.87;77.55;95731.53;3946091;34;20016;-85
2022/01/04 10:09:46;;;;;;;18.45;11.65;;;6.20;81.50;;;4.88;77.33;95725.06;3926708;34;20353;-85
2022/01/04 10:12:18;;;;;;;17.98;10.82;;;6.20;81.60;;;4.86;77.52;95716.34;3968647;34;20006;-85
2022/01/04 10:14:55;;;;;;;18.55;11.27;;;6.10;81.50;;;4.87;77.56;95714.47;3905566;34;20009;-85
2022/01/04 10:17:28;;;;;;;18.73;10.45;;;6.10;82.30;;;4.85;77.67;95709.25;3925895;34;20014;-84
2022/01/04 10:19:58;;;;;;;17.15;10.60;;;6.10;81.60;;;4.86;77.71;95702.78;3946482;34;20076;-84
2022/01/04 10:22:34;;;;;;;16.75;10.30;;;6.10;81.60;;;4.86;77.40;95697.34;3905014;34;20282;-85
2022/01/04 10:25:00;;;;;;;15.98;9.25;;;6.10;81.60;;;4.86;77.57;95691.94;3905796;34;20325;-84
2022/01/04 10:27:44;;;;;;;17.33;10.10;;;6.10;81.60;;;4.87;77.62;95685.44;3987644;34;20324;-84
2022/01/04 10:30:38;;;;;;;17.25;10.70;;;6.10;81.60;;;4.87;77.83;95673.78;3987192;34;20291;-84
2022/01/04 10:33:22;;;;;;;17.65;10.50;;;6.10;81.60;;;4.87;77.43;95677.28;3946045;34;20295;-84
2022/01/04 10:35:50;;;;;;;16.13;9.25;;;6.10;81.60;;;4.87;77.43;95684.63;3983450;34;20321;-84
2022/01/04 10:38:18;;;;;;;13.93;8.52;;;6.10;81.60;;;4.87;77.22;95680.00;3963972;34;20671;-85